Time,TemperatureF,DewpointF,PressureIn,WindDirection,WindDirectionDegrees,WindSpeedMPH,WindSpeedGustMPH,Humidity,HourlyPrecipIn,Conditions,Clouds,dailyrainin,SoftwareType,DateUTC
2013-10-15 00:01:00,59.7,58.6,30.18,North,0,6.0,8.3,96,0.00,,,0.00,meteobridge,2013-10-15 04:01:00,
2013-10-15 00:02:00,59.7,58.6,30.18,North,0,5.4,6.0,96,0.00,,,0.00,meteobridge,2013-10-15 04:02:00,
2013-10-15 00:07:00,59.7,58.6,30.18,NW,315,6.0,7.6,96,0.00,,,0.00,meteobridge,2013-10-15 04:07:00,
2013-10-15 00:13:00,59.7,58.6,30.18,NW,315,6.0,6.9,96,0.00,,,0.00,meteobridge,2013-10-15 04:13:00,
2013-10-15 00:18:00,59.7,58.6,30.19,North,0,6.0,6.0,96,0.00,,,0.00,meteobridge,2013-10-15 04:18:00,
2013-10-15 00:23:00,59.5,58.5,30.19,North,0,4.5,8.3,96,0.00,,,0.00,meteobridge,2013-10-15 04:23:00,
2013-10-15 00:28:00,59.5,58.5,30.18,NW,315,9.8,9.8,96,0.00,,,0.00,meteobridge,2013-10-15 04:28:00,
2013-10-15 00:33:00,59.5,58.1,30.18,NNW,338,6.9,8.3,95,0.00,,,0.00,meteobridge,2013-10-15 04:33:00,
2013-10-15 00:38:00,59.5,58.5,30.18,North,0,8.3,8.3,96,0.00,,,0.00,meteobridge,2013-10-15 04:38:00,
2013-10-15 00:44:00,59.5,58.1,30.18,NW,315,9.8,9.8,95,0.00,,,0.00,meteobridge,2013-10-15 04:44:00,
2013-10-15 00:49:00,59.5,58.5,30.18,NNW,338,7.6,8.3,96,0.00,,,0.00,meteobridge,2013-10-15 04:49:00,
2013-10-15 00:54:00,59.4,58.3,30.18,NW,315,5.4,8.3,96,0.00,,,0.00,meteobridge,2013-10-15 04:54:00,
2013-10-15 00:59:00,59.4,58.3,30.17,North,0,8.3,9.2,96,0.00,,,0.00,meteobridge,2013-10-15 04:59:00,
2013-10-15 01:04:00,59.4,58.3,30.18,North,0,9.2,9.2,96,0.00,,,0.00,meteobridge,2013-10-15 05:04:00,
2013-10-15 01:09:00,59.4,58.3,30.17,North,0,10.7,11.4,96,0.00,,,0.00,meteobridge,2013-10-15 05:09:00,
2013-10-15 01:15:00,59.4,57.9,30.17,North,0,10.7,10.7,95,0.00,,,0.00,meteobridge,2013-10-15 05:15:00,
2013-10-15 01:20:00,59.4,57.9,30.17,North,0,9.8,10.7,95,0.00,,,0.00,meteobridge,2013-10-15 05:20:00,
2013-10-15 01:25:00,59.4,58.3,30.16,North,0,9.8,9.8,96,0.00,,,0.00,meteobridge,2013-10-15 05:25:00,
2013-10-15 01:30:00,59.2,57.7,30.16,North,0,9.2,10.7,95,0.00,,,0.00,meteobridge,2013-10-15 05:30:00,
2013-10-15 01:35:00,59.0,57.6,30.16,North,0,6.9,9.2,95,0.00,,,0.00,meteobridge,2013-10-15 05:35:00,
2013-10-15 01:40:00,59.0,57.6,30.17,NW,315,6.9,6.9,95,0.00,,,0.00,meteobridge,2013-10-15 05:40:00,
2013-10-15 01:46:00,59.0,57.9,30.17,North,0,8.3,9.2,96,0.00,,,0.00,meteobridge,2013-10-15 05:46:00,
2013-10-15 01:51:00,59.0,57.6,30.17,NW,315,8.3,8.3,95,0.00,,,0.00,meteobridge,2013-10-15 05:51:00,
2013-10-15 01:56:00,58.8,57.9,30.17,North,0,6.9,7.6,97,0.00,,,0.00,meteobridge,2013-10-15 05:56:00,
2013-10-15 02:01:00,58.8,57.9,30.17,NE,45,5.4,7.6,97,0.00,,,0.00,meteobridge,2013-10-15 06:01:00,
2013-10-15 02:06:00,58.6,57.7,30.16,North,0,5.4,7.6,97,0.00,,,0.00,meteobridge,2013-10-15 06:06:00,
2013-10-15 02:11:00,58.5,57.6,30.16,North,0,6.0,6.9,97,0.00,,,0.00,meteobridge,2013-10-15 06:11:00,
2013-10-15 02:17:00,58.5,57.6,30.17,North,0,6.9,6.9,97,0.00,,,0.00,meteobridge,2013-10-15 06:17:00,
2013-10-15 02:22:00,58.3,57.4,30.17,North,0,6.0,6.0,97,0.00,,,0.00,meteobridge,2013-10-15 06:22:00,
2013-10-15 02:27:00,58.3,57.7,30.17,NW,315,1.6,6.9,98,0.00,,,0.00,meteobridge,2013-10-15 06:27:00,
2013-10-15 02:32:00,57.9,57.4,30.16,NW,315,4.5,4.5,98,0.00,,,0.00,meteobridge,2013-10-15 06:32:00,
2013-10-15 02:37:00,57.7,57.2,30.16,North,0,3.1,3.1,98,0.00,,,0.00,meteobridge,2013-10-15 06:37:00,
2013-10-15 02:42:00,57.4,56.8,30.16,North,0,3.8,3.8,98,0.00,,,0.00,meteobridge,2013-10-15 06:42:00,
2013-10-15 02:48:00,57.4,57.0,30.16,NE,45,2.2,3.1,99,0.00,,,0.00,meteobridge,2013-10-15 06:48:00,
2013-10-15 02:53:00,57.2,56.8,30.15,North,0,2.2,2.2,99,0.00,,,0.00,meteobridge,2013-10-15 06:53:00,
2013-10-15 02:58:00,57.2,56.8,30.15,NW,315,3.1,5.4,99,0.00,,,0.00,meteobridge,2013-10-15 06:58:00,
2013-10-15 03:03:00,57.2,56.8,30.15,NE,45,2.2,5.4,99,0.00,,,0.00,meteobridge,2013-10-15 07:03:00,
2013-10-15 03:08:00,57.2,56.8,30.15,North,0,6.0,6.9,99,0.00,,,0.00,meteobridge,2013-10-15 07:08:00,
2013-10-15 03:13:00,57.4,57.0,30.15,NE,45,7.6,8.3,99,0.00,,,0.00,meteobridge,2013-10-15 07:13:00,
2013-10-15 03:19:00,57.4,57.0,30.15,NE,45,8.3,9.2,99,0.00,,,0.00,meteobridge,2013-10-15 07:19:00,
2013-10-15 03:24:00,57.4,57.0,30.14,North,0,6.9,10.7,99,0.00,,,0.00,meteobridge,2013-10-15 07:24:00,
2013-10-15 03:29:00,57.2,56.8,30.15,North,0,5.4,6.0,99,0.00,,,0.00,meteobridge,2013-10-15 07:29:00,
2013-10-15 03:34:00,57.0,56.7,30.14,North,0,8.3,8.3,99,0.00,,,0.00,meteobridge,2013-10-15 07:34:00,
2013-10-15 03:39:00,57.0,56.7,30.14,North,0,6.9,6.9,99,0.00,,,0.00,meteobridge,2013-10-15 07:39:00,
2013-10-15 03:45:00,57.2,56.8,30.14,North,0,6.9,6.9,99,0.00,,,0.00,meteobridge,2013-10-15 07:45:00,
2013-10-15 03:50:00,57.2,56.8,30.14,NE,45,3.8,6.0,99,0.00,,,0.00,meteobridge,2013-10-15 07:50:00,
2013-10-15 03:55:00,57.0,56.7,30.14,North,0,5.4,5.4,99,0.00,,,0.00,meteobridge,2013-10-15 07:55:00,
2013-10-15 04:00:00,57.2,56.8,30.14,North,0,4.5,5.4,99,0.00,,,0.00,meteobridge,2013-10-15 08:00:00,
2013-10-15 04:05:00,57.2,56.8,30.14,North,0,6.9,6.9,99,0.00,,,0.00,meteobridge,2013-10-15 08:05:00,
2013-10-15 04:10:00,57.0,56.7,30.13,North,0,6.9,6.9,99,0.00,,,0.00,meteobridge,2013-10-15 08:10:00,
2013-10-15 04:16:00,57.0,56.7,30.14,North,0,6.0,7.6,99,0.00,,,0.00,meteobridge,2013-10-15 08:16:00,
2013-10-15 04:21:00,57.0,56.7,30.14,North,0,8.3,8.3,99,0.00,,,0.00,meteobridge,2013-10-15 08:21:00,
2013-10-15 04:26:00,57.0,56.7,30.14,NW,315,8.3,8.3,99,0.00,,,0.00,meteobridge,2013-10-15 08:26:00,
2013-10-15 04:31:00,57.0,56.7,30.14,North,0,8.3,8.3,99,0.00,,,0.00,meteobridge,2013-10-15 08:31:00,
2013-10-15 04:36:00,57.0,56.7,30.14,North,0,7.6,7.6,99,0.00,,,0.00,meteobridge,2013-10-15 08:36:00,
2013-10-15 04:41:00,57.0,56.7,30.14,NW,315,8.3,8.3,99,0.00,,,0.00,meteobridge,2013-10-15 08:41:00,
2013-10-15 04:46:00,57.0,56.7,30.14,North,0,6.0,8.3,99,0.00,,,0.00,meteobridge,2013-10-15 08:46:00,
2013-10-15 04:51:00,56.8,56.5,30.14,NW,315,5.4,6.9,99,0.00,,,0.00,meteobridge,2013-10-15 08:51:00,
2013-10-15 04:52:00,56.8,56.5,30.14,NW,315,5.4,6.9,99,0.00,,,0.00,meteobridge,2013-10-15 08:52:00,
2013-10-15 04:57:00,56.8,56.5,30.14,North,0,9.2,9.2,99,0.00,,,0.00,meteobridge,2013-10-15 08:57:00,
2013-10-15 05:02:00,56.7,56.3,30.14,NE,45,6.0,8.3,99,0.00,,,0.00,meteobridge,2013-10-15 09:02:00,
2013-10-15 05:07:00,56.7,56.3,30.14,North,0,6.0,6.0,99,0.00,,,0.00,meteobridge,2013-10-15 09:07:00,
2013-10-15 05:13:00,56.5,56.1,30.14,East,90,2.2,2.2,99,0.00,,,0.00,meteobridge,2013-10-15 09:13:00,
2013-10-15 05:18:00,56.1,55.8,30.14,North,0,4.5,4.5,99,0.00,,,0.00,meteobridge,2013-10-15 09:18:00,
2013-10-15 05:23:00,55.9,55.6,30.14,East,90,3.1,4.5,99,0.00,,,0.00,meteobridge,2013-10-15 09:23:00,
2013-10-15 05:28:00,55.9,55.6,30.14,NNE,23,1.6,4.5,99,0.00,,,0.00,meteobridge,2013-10-15 09:28:00,
2013-10-15 05:33:00,55.8,55.4,30.14,North,0,2.2,3.8,99,0.00,,,0.00,meteobridge,2013-10-15 09:33:00,
2013-10-15 05:38:00,55.6,55.2,30.14,NE,45,4.5,4.5,99,0.00,,,0.00,meteobridge,2013-10-15 09:38:00,
2013-10-15 05:44:00,55.4,55.0,30.14,North,0,3.1,3.1,99,0.00,,,0.00,meteobridge,2013-10-15 09:44:00,
2013-10-15 05:49:00,55.4,55.0,30.14,SE,135,1.6,1.6,99,0.00,,,0.00,meteobridge,2013-10-15 09:49:00,
2013-10-15 05:54:00,55.2,54.3,30.14,North,0,3.1,3.8,97,0.00,,,0.00,meteobridge,2013-10-15 09:54:00,
2013-10-15 05:59:00,55.2,54.3,30.14,West,270,1.6,1.6,97,0.00,,,0.00,meteobridge,2013-10-15 09:59:00,
2013-10-15 06:04:00,55.2,54.3,30.14,NE,45,1.6,2.2,97,0.00,,,0.00,meteobridge,2013-10-15 10:04:00,
2013-10-15 06:09:00,55.2,54.3,30.14,North,0,3.8,3.8,97,0.00,,,0.00,meteobridge,2013-10-15 10:09:00,
2013-10-15 06:15:00,55.2,54.3,30.14,West,270,2.2,2.2,97,0.00,,,0.00,meteobridge,2013-10-15 10:15:00,
2013-10-15 06:20:00,55.2,54.3,30.14,North,0,2.2,3.1,97,0.00,,,0.00,meteobridge,2013-10-15 10:20:00,
2013-10-15 06:25:00,55.2,54.3,30.14,North,0,4.5,4.5,97,0.00,,,0.00,meteobridge,2013-10-15 10:25:00,
2013-10-15 06:30:00,55.8,55.4,30.14,North,0,4.5,6.0,99,0.00,,,0.00,meteobridge,2013-10-15 10:30:00,
2013-10-15 06:35:00,55.8,55.4,30.14,North,0,6.0,6.9,99,0.00,,,0.00,meteobridge,2013-10-15 10:35:00,
2013-10-15 06:40:00,55.8,55.4,30.14,NE,45,4.5,5.4,99,0.00,,,0.00,meteobridge,2013-10-15 10:40:00,
2013-10-15 06:46:00,55.6,55.2,30.14,North,0,1.6,2.2,99,0.00,,,0.00,meteobridge,2013-10-15 10:46:00,
2013-10-15 06:51:00,55.6,55.2,30.14,ENE,68,2.2,3.1,99,0.00,,,0.00,meteobridge,2013-10-15 10:51:00,
2013-10-15 06:56:00,55.4,55.0,30.15,North,0,0.7,2.2,99,0.00,,,0.00,meteobridge,2013-10-15 10:56:00,
2013-10-15 07:01:00,55.4,55.0,30.15,North,0,1.6,1.6,99,0.00,,,0.00,meteobridge,2013-10-15 11:01:00,
2013-10-15 07:06:00,55.4,55.0,30.15,West,270,3.1,3.8,99,0.00,,,0.00,meteobridge,2013-10-15 11:06:00,
2013-10-15 07:12:00,55.6,55.2,30.15,North,0,4.5,4.5,99,0.00,,,0.00,meteobridge,2013-10-15 11:12:00,
2013-10-15 07:17:00,55.8,55.4,30.15,West,270,3.8,6.0,99,0.00,,,0.00,meteobridge,2013-10-15 11:17:00,
2013-10-15 07:22:00,55.9,55.6,30.16,NW,315,4.5,5.4,99,0.00,,,0.00,meteobridge,2013-10-15 11:22:00,
2013-10-15 07:27:00,55.9,55.6,30.15,North,0,3.8,4.5,99,0.00,,,0.00,meteobridge,2013-10-15 11:27:00,
2013-10-15 07:32:00,55.8,55.4,30.15,NNW,338,4.5,5.4,99,0.00,,,0.00,meteobridge,2013-10-15 11:32:00,
2013-10-15 07:37:00,55.8,55.4,30.15,North,0,5.4,6.9,99,0.00,,,0.00,meteobridge,2013-10-15 11:37:00,
2013-10-15 07:43:00,55.9,55.6,30.15,North,0,6.9,6.9,99,0.00,,,0.00,meteobridge,2013-10-15 11:43:00,
2013-10-15 07:48:00,55.9,55.6,30.15,NNE,23,3.8,5.4,99,0.00,,,0.00,meteobridge,2013-10-15 11:48:00,
2013-10-15 07:53:00,55.9,55.6,30.16,NNW,338,5.4,5.4,99,0.00,,,0.00,meteobridge,2013-10-15 11:53:00,
2013-10-15 07:58:00,55.9,55.6,30.15,North,0,9.2,9.2,99,0.00,,,0.00,meteobridge,2013-10-15 11:58:00,
2013-10-15 08:03:00,56.1,55.8,30.16,North,0,3.8,6.0,99,0.00,,,0.00,meteobridge,2013-10-15 12:03:00,
2013-10-15 08:08:00,56.3,55.9,30.15,NNE,23,4.5,5.4,99,0.00,,,0.00,meteobridge,2013-10-15 12:08:00,
2013-10-15 08:14:00,56.3,55.9,30.16,North,0,5.4,5.4,99,0.00,,,0.00,meteobridge,2013-10-15 12:14:00,
2013-10-15 08:19:00,55.9,55.6,30.16,North,0,6.0,8.3,99,0.00,,,0.00,meteobridge,2013-10-15 12:19:00,
2013-10-15 08:24:00,56.3,55.9,30.16,NE,45,4.5,4.5,99,0.00,,,0.00,meteobridge,2013-10-15 12:24:00,
2013-10-15 08:29:00,56.3,55.9,30.16,NE,45,7.6,7.6,99,0.00,,,0.00,meteobridge,2013-10-15 12:29:00,
2013-10-15 08:34:00,56.1,55.6,30.16,North,0,12.1,17.4,98,0.00,,,0.00,meteobridge,2013-10-15 12:34:00,
2013-10-15 08:39:00,56.1,55.6,30.16,North,0,8.3,9.8,98,0.00,,,0.00,meteobridge,2013-10-15 12:39:00,
2013-10-15 08:45:00,56.1,55.8,30.16,North,0,12.1,12.1,99,0.00,,,0.00,meteobridge,2013-10-15 12:45:00,
2013-10-15 08:50:00,56.1,55.6,30.17,North,0,9.8,9.8,98,0.00,,,0.00,meteobridge,2013-10-15 12:50:00,
2013-10-15 08:55:00,55.9,55.4,30.17,North,0,10.7,15.2,98,0.00,,,0.00,meteobridge,2013-10-15 12:55:00,
2013-10-15 09:00:00,56.3,55.8,30.17,North,0,8.3,8.3,98,0.00,,,0.00,meteobridge,2013-10-15 13:00:00,
2013-10-15 09:05:00,56.3,55.8,30.17,North,0,9.8,9.8,98,0.00,,,0.00,meteobridge,2013-10-15 13:05:00,
2013-10-15 09:10:00,56.5,55.9,30.16,North,0,11.4,14.5,98,0.00,,,0.00,meteobridge,2013-10-15 13:10:00,
2013-10-15 09:16:00,56.7,56.1,30.16,North,0,12.1,12.1,98,0.00,,,0.00,meteobridge,2013-10-15 13:16:00,
2013-10-15 09:21:00,56.7,55.8,30.16,North,0,9.8,12.1,97,0.00,,,0.00,meteobridge,2013-10-15 13:21:00,
2013-10-15 09:26:00,56.8,55.9,30.16,North,0,7.6,13.0,97,0.00,,,0.00,meteobridge,2013-10-15 13:26:00,
2013-10-15 09:31:00,57.4,56.3,30.16,North,0,11.4,13.0,96,0.00,,,0.00,meteobridge,2013-10-15 13:31:00,
2013-10-15 09:36:00,57.6,56.1,30.16,North,0,15.2,15.2,95,0.00,,,0.00,meteobridge,2013-10-15 13:36:00,
2013-10-15 09:41:00,57.7,55.9,30.16,North,0,9.2,13.0,94,0.00,,,0.00,meteobridge,2013-10-15 13:41:00,
2013-10-15 09:47:00,58.5,56.7,30.16,North,0,13.6,13.6,94,0.00,,,0.00,meteobridge,2013-10-15 13:47:00,
2013-10-15 09:52:00,59.5,56.8,30.16,North,0,7.6,9.8,91,0.00,,,0.00,meteobridge,2013-10-15 13:52:00,
2013-10-15 09:57:00,60.1,56.8,30.16,North,0,8.3,9.2,89,0.00,,,0.00,meteobridge,2013-10-15 13:57:00,
2013-10-15 10:02:00,61.2,57.0,30.16,NE,45,6.0,6.0,86,0.00,,,0.00,meteobridge,2013-10-15 14:02:00,
2013-10-15 10:07:00,62.1,56.8,30.16,North,0,8.3,8.3,83,0.00,,,0.00,meteobridge,2013-10-15 14:07:00,
2013-10-15 10:12:00,62.4,56.8,30.16,NE,45,10.7,10.7,82,0.00,,,0.00,meteobridge,2013-10-15 14:12:00,
2013-10-15 10:18:00,63.3,57.4,30.15,North,0,6.0,6.0,81,0.00,,,0.00,meteobridge,2013-10-15 14:18:00,
2013-10-15 10:23:00,64.2,56.8,30.16,North,0,9.2,11.4,77,0.00,,,0.00,meteobridge,2013-10-15 14:23:00,
2013-10-15 10:28:00,63.5,56.5,30.15,North,0,9.8,10.7,78,0.00,,,0.00,meteobridge,2013-10-15 14:28:00,
2013-10-15 10:33:00,63.1,56.1,30.15,North,0,16.8,16.8,78,0.00,,,0.00,meteobridge,2013-10-15 14:33:00,
2013-10-15 10:38:00,63.5,56.8,30.15,NNE,23,11.4,12.1,79,0.00,,,0.00,meteobridge,2013-10-15 14:38:00,
2013-10-15 10:43:00,64.2,56.5,30.15,North,0,9.8,9.8,76,0.00,,,0.00,meteobridge,2013-10-15 14:43:00,
2013-10-15 10:49:00,64.4,56.3,30.15,NE,45,11.4,12.1,75,0.00,,,0.00,meteobridge,2013-10-15 14:49:00,
2013-10-15 10:54:00,64.4,55.9,30.15,North,0,13.0,15.2,74,0.00,,,0.00,meteobridge,2013-10-15 14:54:00,
2013-10-15 10:59:00,64.9,56.5,30.15,NNE,23,10.7,10.7,74,0.00,,,0.00,meteobridge,2013-10-15 14:59:00,
2013-10-15 11:04:00,66.0,55.9,30.14,NE,45,11.4,12.1,70,0.00,,,0.00,meteobridge,2013-10-15 15:04:00,
2013-10-15 11:09:00,65.8,55.8,30.15,NE,45,9.8,9.8,70,0.00,,,0.00,meteobridge,2013-10-15 15:09:00,
2013-10-15 11:14:00,66.9,55.6,30.15,North,0,8.3,12.1,67,0.00,,,0.00,meteobridge,2013-10-15 15:14:00,
2013-10-15 11:20:00,67.3,55.9,30.15,North,0,13.0,13.0,67,0.00,,,0.00,meteobridge,2013-10-15 15:20:00,
2013-10-15 11:25:00,67.6,55.9,30.15,NW,315,10.7,12.1,66,0.00,,,0.00,meteobridge,2013-10-15 15:25:00,
2013-10-15 11:30:00,68.4,55.8,30.14,NW,315,9.8,10.7,64,0.00,,,0.00,meteobridge,2013-10-15 15:30:00,
2013-10-15 11:35:00,68.7,56.1,30.14,NW,315,8.3,9.2,64,0.00,,,0.00,meteobridge,2013-10-15 15:35:00,
2013-10-15 11:40:00,69.3,56.5,30.14,North,0,7.6,11.4,64,0.00,,,0.00,meteobridge,2013-10-15 15:40:00,
2013-10-15 11:45:00,68.0,55.4,30.14,North,0,9.2,10.7,64,0.00,,,0.00,meteobridge,2013-10-15 15:45:00,
2013-10-15 11:51:00,68.2,55.6,30.14,North,0,6.9,9.2,64,0.00,,,0.00,meteobridge,2013-10-15 15:51:00,
2013-10-15 11:56:00,68.7,55.6,30.14,NW,315,9.8,12.1,63,0.00,,,0.00,meteobridge,2013-10-15 15:56:00,
2013-10-15 12:01:00,69.1,55.9,30.14,North,0,9.2,9.8,63,0.00,,,0.00,meteobridge,2013-10-15 16:01:00,
2013-10-15 12:07:00,69.3,55.8,30.14,North,0,11.4,11.4,62,0.00,,,0.00,meteobridge,2013-10-15 16:07:00,
2013-10-15 12:12:00,69.3,56.1,30.14,NW,315,6.9,11.4,63,0.00,,,0.00,meteobridge,2013-10-15 16:12:00,
2013-10-15 12:17:00,68.5,55.4,30.14,NW,315,9.2,12.1,63,0.00,,,0.00,meteobridge,2013-10-15 16:17:00,
2013-10-15 12:22:00,68.7,55.6,30.14,North,0,9.8,9.8,63,0.00,,,0.00,meteobridge,2013-10-15 16:22:00,
2013-10-15 12:27:00,69.4,56.3,30.14,North,0,8.3,10.7,63,0.00,,,0.00,meteobridge,2013-10-15 16:27:00,
2013-10-15 12:32:00,69.6,56.5,30.13,NW,315,7.6,9.8,63,0.00,,,0.00,meteobridge,2013-10-15 16:32:00,
2013-10-15 12:38:00,70.3,55.8,30.13,North,0,10.7,10.7,60,0.00,,,0.00,meteobridge,2013-10-15 16:38:00,
2013-10-15 12:43:00,70.0,56.3,30.12,NW,315,9.8,9.8,62,0.00,,,0.00,meteobridge,2013-10-15 16:43:00,
2013-10-15 12:48:00,70.7,55.6,30.12,NW,315,6.0,13.0,59,0.00,,,0.00,meteobridge,2013-10-15 16:48:00,
2013-10-15 12:53:00,71.6,56.1,30.12,NW,315,8.3,10.7,58,0.00,,,0.00,meteobridge,2013-10-15 16:53:00,
2013-10-15 12:58:00,71.2,56.7,30.11,WNW,293,10.7,10.7,60,0.00,,,0.00,meteobridge,2013-10-15 16:58:00,
2013-10-15 13:03:00,70.9,56.8,30.11,NW,315,8.3,13.0,61,0.00,,,0.00,meteobridge,2013-10-15 17:03:00,
2013-10-15 13:09:00,71.2,57.0,30.11,North,0,6.9,8.3,61,0.00,,,0.00,meteobridge,2013-10-15 17:09:00,
2013-10-15 13:14:00,72.3,58.1,30.10,NW,315,7.6,8.3,61,0.00,,,0.00,meteobridge,2013-10-15 17:14:00,
2013-10-15 13:19:00,72.0,57.4,30.11,NW,315,9.2,10.7,60,0.00,,,0.00,meteobridge,2013-10-15 17:19:00,
2013-10-15 13:24:00,72.3,58.1,30.10,NW,315,9.2,9.2,61,0.00,,,0.00,meteobridge,2013-10-15 17:24:00,
2013-10-15 13:29:00,72.9,56.7,30.10,NW,315,9.8,9.8,57,0.00,,,0.00,meteobridge,2013-10-15 17:29:00,
2013-10-15 13:34:00,73.2,58.5,30.10,North,0,5.4,9.2,60,0.00,,,0.00,meteobridge,2013-10-15 17:34:00,
2013-10-15 13:40:00,72.7,58.5,30.10,North,0,10.7,11.4,61,0.00,,,0.00,meteobridge,2013-10-15 17:40:00,
2013-10-15 13:45:00,72.5,57.4,30.09,North,0,8.3,10.7,59,0.00,,,0.00,meteobridge,2013-10-15 17:45:00,
2013-10-15 13:50:00,73.9,58.6,30.09,NW,315,9.8,9.8,59,0.00,,,0.00,meteobridge,2013-10-15 17:50:00,
2013-10-15 13:55:00,73.0,58.8,30.09,NW,315,12.1,12.1,61,0.00,,,0.00,meteobridge,2013-10-15 17:55:00,
2013-10-15 14:00:00,72.5,58.3,30.09,North,0,9.8,13.6,61,0.00,,,0.00,meteobridge,2013-10-15 18:00:00,
2013-10-15 14:05:00,73.8,58.5,30.09,North,0,8.3,8.3,59,0.00,,,0.00,meteobridge,2013-10-15 18:05:00,
2013-10-15 14:11:00,74.5,59.2,30.08,NW,315,9.2,11.4,59,0.00,,,0.00,meteobridge,2013-10-15 18:11:00,
2013-10-15 14:16:00,76.1,59.7,30.08,North,0,7.6,7.6,57,0.00,,,0.00,meteobridge,2013-10-15 18:16:00,
2013-10-15 14:21:00,74.8,58.6,30.08,North,0,6.9,12.1,57,0.00,,,0.00,meteobridge,2013-10-15 18:21:00,
2013-10-15 14:26:00,75.6,58.8,30.08,North,0,3.1,8.3,56,0.00,,,0.00,meteobridge,2013-10-15 18:26:00,
2013-10-15 14:31:00,76.8,59.4,30.08,NW,315,8.3,10.7,55,0.00,,,0.00,meteobridge,2013-10-15 18:31:00,
2013-10-15 14:37:00,74.8,58.6,30.09,North,0,10.7,12.1,57,0.00,,,0.00,meteobridge,2013-10-15 18:37:00,
2013-10-15 14:42:00,74.8,59.0,30.08,North,0,6.9,9.2,58,0.00,,,0.00,meteobridge,2013-10-15 18:42:00,
2013-10-15 14:47:00,75.6,59.2,30.08,ENE,68,6.9,7.6,57,0.00,,,0.00,meteobridge,2013-10-15 18:47:00,
2013-10-15 14:52:00,76.5,60.1,30.09,North,0,9.8,9.8,57,0.00,,,0.00,meteobridge,2013-10-15 18:52:00,
2013-10-15 14:57:00,73.9,58.3,30.08,NNW,338,8.3,10.7,58,0.00,,,0.00,meteobridge,2013-10-15 18:57:00,
2013-10-15 15:02:00,73.2,59.0,30.08,North,0,10.7,10.7,61,0.00,,,0.00,meteobridge,2013-10-15 19:02:00,
2013-10-15 15:08:00,73.0,59.2,30.08,North,0,6.9,11.4,62,0.00,,,0.00,meteobridge,2013-10-15 19:08:00,
2013-10-15 15:13:00,72.9,59.0,30.07,North,0,7.6,8.3,62,0.00,,,0.00,meteobridge,2013-10-15 19:13:00,
2013-10-15 15:18:00,72.9,59.5,30.07,North,0,3.1,9.2,63,0.00,,,0.00,meteobridge,2013-10-15 19:18:00,
2013-10-15 15:23:00,73.4,61.0,30.07,East,90,4.5,6.0,65,0.00,,,0.00,meteobridge,2013-10-15 19:23:00,
2013-10-15 15:28:00,73.4,60.4,30.07,NE,45,3.8,6.0,64,0.00,,,0.00,meteobridge,2013-10-15 19:28:00,
2013-10-15 15:33:00,73.6,60.6,30.07,East,90,6.0,6.0,64,0.00,,,0.00,meteobridge,2013-10-15 19:33:00,
2013-10-15 15:39:00,73.4,61.0,30.07,North,0,5.4,5.4,65,0.00,,,0.00,meteobridge,2013-10-15 19:39:00,
2013-10-15 15:44:00,73.2,59.9,30.06,East,90,3.1,6.9,63,0.00,,,0.00,meteobridge,2013-10-15 19:44:00,
2013-10-15 15:49:00,73.4,61.0,30.07,East,90,6.9,6.9,65,0.00,,,0.00,meteobridge,2013-10-15 19:49:00,
2013-10-15 15:54:00,73.6,61.2,30.07,NE,45,6.0,6.0,65,0.00,,,0.00,meteobridge,2013-10-15 19:54:00,
2013-10-15 15:59:00,73.9,61.0,30.06,ESE,113,3.8,6.0,64,0.00,,,0.00,meteobridge,2013-10-15 19:59:00,
2013-10-15 16:04:00,73.6,61.2,30.07,NW,315,6.0,6.0,65,0.00,,,0.00,meteobridge,2013-10-15 20:04:00,
2013-10-15 16:10:00,72.5,60.1,30.06,North,0,5.4,6.0,65,0.00,,,0.00,meteobridge,2013-10-15 20:10:00,
2013-10-15 16:15:00,72.3,60.3,30.07,NNE,23,6.0,7.6,66,0.00,,,0.00,meteobridge,2013-10-15 20:15:00,
2013-10-15 16:20:00,71.8,59.7,30.07,NE,45,8.3,9.2,66,0.00,,,0.00,meteobridge,2013-10-15 20:20:00,
2013-10-15 16:25:00,71.4,60.3,30.06,NW,315,5.4,7.6,68,0.00,,,0.00,meteobridge,2013-10-15 20:25:00,
2013-10-15 16:30:00,71.6,60.1,30.06,NNE,23,3.1,7.6,67,0.00,,,0.00,meteobridge,2013-10-15 20:30:00,
2013-10-15 16:35:00,71.8,59.7,30.06,NE,45,6.0,6.0,66,0.00,,,0.00,meteobridge,2013-10-15 20:35:00,
2013-10-15 16:41:00,72.0,61.7,30.06,North,0,7.6,7.6,70,0.00,,,0.00,meteobridge,2013-10-15 20:41:00,
2013-10-15 16:46:00,72.0,61.2,30.05,NW,315,8.3,8.3,69,0.00,,,0.00,meteobridge,2013-10-15 20:46:00,
2013-10-15 16:51:00,72.0,60.8,30.06,NW,315,4.5,6.9,68,0.00,,,0.00,meteobridge,2013-10-15 20:51:00,
2013-10-15 16:56:00,72.0,61.2,30.06,North,0,4.5,5.4,69,0.00,,,0.00,meteobridge,2013-10-15 20:56:00,
2013-10-15 17:01:00,73.0,61.9,30.06,North,0,6.0,6.9,68,0.00,,,0.00,meteobridge,2013-10-15 21:01:00,
2013-10-15 17:06:00,73.6,61.2,30.06,North,0,6.9,6.9,65,0.00,,,0.00,meteobridge,2013-10-15 21:06:00,
2013-10-15 17:12:00,73.0,61.0,30.06,NW,315,3.1,4.5,66,0.00,,,0.00,meteobridge,2013-10-15 21:12:00,
2013-10-15 17:17:00,72.7,60.6,30.06,NW,315,4.5,5.4,66,0.00,,,0.00,meteobridge,2013-10-15 21:17:00,
2013-10-15 17:22:00,72.0,60.4,30.06,NW,315,5.4,7.6,67,0.00,,,0.00,meteobridge,2013-10-15 21:22:00,
2013-10-15 17:27:00,72.3,61.5,30.06,NW,315,5.4,5.4,69,0.00,,,0.00,meteobridge,2013-10-15 21:27:00,
2013-10-15 17:32:00,72.3,61.2,30.06,NW,315,4.5,6.0,68,0.00,,,0.00,meteobridge,2013-10-15 21:32:00,
2013-10-15 17:37:00,72.1,61.9,30.06,North,0,4.5,4.5,70,0.00,,,0.00,meteobridge,2013-10-15 21:37:00,
2013-10-15 17:43:00,71.8,61.9,30.06,North,0,3.8,5.4,71,0.00,,,0.00,meteobridge,2013-10-15 21:43:00,
2013-10-15 17:48:00,71.4,61.9,30.06,North,0,7.6,7.6,72,0.00,,,0.00,meteobridge,2013-10-15 21:48:00,
2013-10-15 17:53:00,71.4,61.9,30.06,NW,315,6.9,6.9,72,0.00,,,0.00,meteobridge,2013-10-15 21:53:00,
2013-10-15 17:58:00,71.2,61.7,30.06,NW,315,5.4,6.9,72,0.00,,,0.00,meteobridge,2013-10-15 21:58:00,
2013-10-15 18:03:00,70.9,61.3,30.06,North,0,6.0,6.9,72,0.00,,,0.00,meteobridge,2013-10-15 22:03:00,
2013-10-15 18:08:00,70.7,61.7,30.06,North,0,3.1,3.1,73,0.00,,,0.00,meteobridge,2013-10-15 22:08:00,
2013-10-15 18:14:00,70.3,61.3,30.06,North,0,3.1,3.1,73,0.00,,,0.00,meteobridge,2013-10-15 22:14:00,
2013-10-15 18:19:00,70.2,61.5,30.06,North,0,2.2,4.5,74,0.00,,,0.00,meteobridge,2013-10-15 22:19:00,
2013-10-15 18:24:00,70.2,61.5,30.06,NW,315,3.1,3.1,74,0.00,,,0.00,meteobridge,2013-10-15 22:24:00,
2013-10-15 18:29:00,69.8,61.2,30.06,North,0,5.4,5.4,74,0.00,,,0.00,meteobridge,2013-10-15 22:29:00,
2013-10-15 18:34:00,69.6,61.7,30.06,North,0,2.2,5.4,76,0.00,,,0.00,meteobridge,2013-10-15 22:34:00,
2013-10-15 18:39:00,69.6,61.7,30.06,North,0,3.8,4.5,76,0.00,,,0.00,meteobridge,2013-10-15 22:39:00,
2013-10-15 18:45:00,69.4,61.9,30.06,North,0,3.8,4.5,77,0.00,,,0.00,meteobridge,2013-10-15 22:45:00,
2013-10-15 18:50:00,69.3,62.4,30.06,North,0,3.1,4.5,79,0.00,,,0.00,meteobridge,2013-10-15 22:50:00,
2013-10-15 18:55:00,69.3,62.4,30.06,NE,45,2.2,2.2,79,0.00,,,0.00,meteobridge,2013-10-15 22:55:00,
2013-10-15 19:00:00,69.1,62.2,30.06,SE,135,0.7,2.2,79,0.00,,,0.00,meteobridge,2013-10-15 23:00:00,
2013-10-15 19:05:00,68.7,62.2,30.06,East,90,1.6,2.2,80,0.00,,,0.00,meteobridge,2013-10-15 23:05:00,
2013-10-15 19:10:00,68.5,62.4,30.06,SE,135,0.7,0.7,81,0.00,,,0.00,meteobridge,2013-10-15 23:10:00,
2013-10-15 19:16:00,68.5,62.8,30.06,NW,315,1.6,1.6,82,0.00,,,0.00,meteobridge,2013-10-15 23:16:00,
2013-10-15 19:21:00,68.4,62.6,30.07,SE,135,1.6,2.2,82,0.00,,,0.00,meteobridge,2013-10-15 23:21:00,
2013-10-15 19:26:00,68.2,62.8,30.06,East,90,2.2,2.2,83,0.00,,,0.00,meteobridge,2013-10-15 23:26:00,
2013-10-15 19:31:00,67.8,63.1,30.07,SE,135,2.2,2.2,85,0.00,,,0.00,meteobridge,2013-10-15 23:31:00,
2013-10-15 19:36:00,67.8,63.1,30.07,South,180,0.0,2.2,85,0.00,,,0.00,meteobridge,2013-10-15 23:36:00,
2013-10-15 19:41:00,67.8,63.1,30.07,North,0,0.7,1.6,85,0.00,,,0.00,meteobridge,2013-10-15 23:41:00,
2013-10-15 19:47:00,67.8,63.1,30.07,East,90,2.2,2.2,85,0.00,,,0.00,meteobridge,2013-10-15 23:47:00,
2013-10-15 19:52:00,67.6,63.3,30.06,SE,135,1.6,1.6,86,0.00,,,0.00,meteobridge,2013-10-15 23:52:00,
2013-10-15 19:57:00,67.6,63.3,30.06,South,180,1.6,1.6,86,0.00,,,0.00,meteobridge,2013-10-15 23:57:00,
2013-10-15 20:02:00,67.6,63.3,30.06,SE,135,2.2,2.2,86,0.00,,,0.00,meteobridge,2013-10-16 00:02:00,
2013-10-15 20:07:00,67.5,63.5,30.06,South,180,1.6,1.6,87,0.00,,,0.00,meteobridge,2013-10-16 00:07:00,
2013-10-15 20:12:00,67.3,63.3,30.07,SE,135,1.6,1.6,87,0.00,,,0.00,meteobridge,2013-10-16 00:12:00,
2013-10-15 20:18:00,67.3,63.3,30.07,SE,135,0.7,1.6,87,0.00,,,0.00,meteobridge,2013-10-16 00:18:00,
2013-10-15 20:23:00,67.3,63.3,30.07,SW,225,1.6,1.6,87,0.00,,,0.00,meteobridge,2013-10-16 00:23:00,
2013-10-15 20:28:00,67.3,63.3,30.07,SE,135,1.6,1.6,87,0.00,,,0.00,meteobridge,2013-10-16 00:28:00,
2013-10-15 20:33:00,67.3,63.3,30.07,East,90,3.1,3.1,87,0.00,,,0.00,meteobridge,2013-10-16 00:33:00,
2013-10-15 20:38:00,67.1,63.1,30.07,SE,135,2.2,3.1,87,0.00,,,0.00,meteobridge,2013-10-16 00:38:00,
2013-10-15 20:43:00,67.1,63.1,30.07,SE,135,1.6,1.6,87,0.00,,,0.00,meteobridge,2013-10-16 00:43:00,
2013-10-15 20:49:00,67.1,63.1,30.07,SE,135,1.6,1.6,87,0.00,,,0.00,meteobridge,2013-10-16 00:49:00,
2013-10-15 20:54:00,67.1,63.1,30.07,SE,135,1.6,1.6,87,0.00,,,0.00,meteobridge,2013-10-16 00:54:00,
2013-10-15 20:59:00,67.1,63.1,30.07,SE,135,0.7,0.7,87,0.00,,,0.00,meteobridge,2013-10-16 00:59:00,
2013-10-15 21:04:00,67.3,63.0,30.07,East,90,1.6,1.6,86,0.00,,,0.00,meteobridge,2013-10-16 01:04:00,
2013-10-15 21:09:00,67.3,63.0,30.07,East,90,2.2,2.2,86,0.00,,,0.00,meteobridge,2013-10-16 01:09:00,
2013-10-15 21:15:00,67.1,62.4,30.07,NE,45,3.8,3.8,85,0.00,,,0.00,meteobridge,2013-10-16 01:15:00,
2013-10-15 21:20:00,67.1,62.4,30.07,SE,135,2.2,3.1,85,0.00,,,0.00,meteobridge,2013-10-16 01:20:00,
2013-10-15 21:25:00,67.1,62.4,30.07,SE,135,1.6,2.2,85,0.00,,,0.00,meteobridge,2013-10-16 01:25:00,
2013-10-15 21:30:00,67.1,62.4,30.07,SE,135,1.6,2.2,85,0.00,,,0.00,meteobridge,2013-10-16 01:30:00,
2013-10-15 21:35:00,67.1,62.4,30.07,SE,135,3.1,3.1,85,0.00,,,0.00,meteobridge,2013-10-16 01:35:00,
2013-10-15 21:40:00,67.1,62.4,30.07,ESE,113,3.1,3.1,85,0.00,,,0.00,meteobridge,2013-10-16 01:40:00,
2013-10-15 21:46:00,67.1,62.4,30.07,East,90,1.6,1.6,85,0.00,,,0.00,meteobridge,2013-10-16 01:46:00,
2013-10-15 21:51:00,67.1,62.4,30.08,SW,225,2.2,2.2,85,0.00,,,0.00,meteobridge,2013-10-16 01:51:00,
2013-10-15 21:56:00,67.1,62.4,30.08,East,90,1.6,4.5,85,0.00,,,0.00,meteobridge,2013-10-16 01:56:00,
2013-10-15 22:01:00,67.3,62.6,30.08,NW,315,1.6,2.2,85,0.00,,,0.00,meteobridge,2013-10-16 02:01:00,
2013-10-15 22:06:00,67.3,62.6,30.08,SE,135,1.6,1.6,85,0.00,,,0.00,meteobridge,2013-10-16 02:06:00,
2013-10-15 22:11:00,67.3,62.2,30.08,North,0,4.5,6.0,84,0.00,,,0.00,meteobridge,2013-10-16 02:11:00,
2013-10-15 22:17:00,67.3,62.2,30.08,NE,45,1.6,4.5,84,0.00,,,0.00,meteobridge,2013-10-16 02:17:00,
2013-10-15 22:22:00,67.3,62.6,30.07,NE,45,3.1,3.8,85,0.00,,,0.00,meteobridge,2013-10-16 02:22:00,
2013-10-15 22:27:00,67.1,62.4,30.07,NE,45,3.8,3.8,85,0.00,,,0.00,meteobridge,2013-10-16 02:27:00,
2013-10-15 22:32:00,67.1,62.4,30.07,North,0,2.2,3.1,85,0.00,,,0.00,meteobridge,2013-10-16 02:32:00,
2013-10-15 22:37:00,67.1,62.4,30.07,NE,45,3.1,3.8,85,0.00,,,0.00,meteobridge,2013-10-16 02:37:00,
2013-10-15 22:42:00,67.1,62.4,30.07,SE,135,2.2,3.1,85,0.00,,,0.00,meteobridge,2013-10-16 02:42:00,
2013-10-15 22:48:00,67.1,62.8,30.07,North,0,3.8,3.8,86,0.00,,,0.00,meteobridge,2013-10-16 02:48:00,
2013-10-15 22:53:00,66.9,62.6,30.07,North,0,3.8,5.4,86,0.00,,,0.00,meteobridge,2013-10-16 02:53:00,
2013-10-15 22:58:00,66.9,62.6,30.07,North,0,4.5,4.5,86,0.00,,,0.00,meteobridge,2013-10-16 02:58:00,
2013-10-15 23:03:00,66.9,62.6,30.07,North,0,4.5,4.5,86,0.00,,,0.00,meteobridge,2013-10-16 03:03:00,
2013-10-15 23:08:00,66.9,62.6,30.06,North,0,3.1,3.1,86,0.00,,,0.00,meteobridge,2013-10-16 03:08:00,
2013-10-15 23:13:00,66.7,62.4,30.06,NNE,23,4.5,4.5,86,0.00,,,0.00,meteobridge,2013-10-16 03:13:00,
2013-10-15 23:19:00,66.6,62.6,30.06,North,0,3.1,3.1,87,0.00,,,0.00,meteobridge,2013-10-16 03:19:00,
2013-10-15 23:24:00,66.4,62.8,30.06,NW,315,5.4,5.4,88,0.00,,,0.00,meteobridge,2013-10-16 03:24:00,
2013-10-15 23:29:00,66.2,62.8,30.06,NW,315,3.1,3.8,89,0.00,,,0.00,meteobridge,2013-10-16 03:29:00,
2013-10-15 23:34:00,66.2,62.8,30.06,East,90,2.2,4.5,89,0.00,,,0.00,meteobridge,2013-10-16 03:34:00,
2013-10-15 23:39:00,65.8,62.8,30.06,East,90,2.2,2.2,90,0.00,,,0.00,meteobridge,2013-10-16 03:39:00,
2013-10-15 23:44:00,65.7,62.6,30.06,East,90,1.6,3.1,90,0.00,,,0.00,meteobridge,2013-10-16 03:44:00,
2013-10-15 23:50:00,65.7,62.6,30.06,North,0,2.2,2.2,90,0.00,,,0.00,meteobridge,2013-10-16 03:50:00,
2013-10-15 23:55:00,65.7,63.0,30.06,North,0,2.2,2.2,91,0.00,,,0.00,meteobridge,2013-10-16 03:55:00,